Latest Weather Observations for Archerfield

IDQ60901

Issued at 9:45 pm EST Saturday 1 November 2014 (issued every 10 minutes, with the page automatically refreshed every 10 minutes)

About weather observations | Map of Brisbane area stations | Latest observations for Brisbane area | Other Formats
Station Details ID: 040211 Name: ARCHERFIELD AIRPORT Lat: -27.57 Lon: 153.01 Height: 12.5 m
Data from the previous 72 hours. | See also: Recent months at Archerfield
Date/Time
EST
Tmp

°C
App
Tmp
°C
Dew
Point
°C
Rel
Hum
%
Delta-T

°C
Wind Press
QNH
hPa
Press
MSL
hPa
Rain
since
9 am
mm
Dir
 
Spd
km/h
Gust
km/h
Spd
kts
Gust
kts
01/09:30pm 24.5 24.1 18.0 67 4.1 N 17 24 9 13 1010.2 1010.1 0.0
01/09:00pm 24.4 24.0 18.1 68 4.0 N 17 22 9 12 1010.2 1010.1 0.0
01/08:30pm 24.6 23.1 18.5 69 3.9 N 24 33 13 18 1009.7 1009.6 0.0
01/08:00pm 24.5 22.5 19.1 72 3.5 N 28 35 15 19 1009.4 1009.3 0.0
01/07:30pm 24.6 22.7 19.4 73 3.3 N 28 35 15 19 1009.0 1008.9 0.0
01/07:00pm 24.4 21.8 19.5 74 3.2 N 32 41 17 22 1008.8 1008.7 0.0
01/06:30pm 24.6 22.2 19.0 71 3.6 N 30 37 16 20 1008.8 1008.7 0.0
01/06:00pm 24.7 22.0 19.3 72 3.5 NNE 32 41 17 22 1008.5 1008.4 0.0
01/05:40pm 25.1 22.4 19.2 70 3.8 NNE 32 52 17 28 1008.4 1008.3 0.0
01/05:30pm 25.3 22.0 19.2 69 3.9 NNE 35 46 19 25 1008.4 1008.3 0.0
01/05:00pm 26.2 22.5 19.1 65 4.6 N 37 48 20 26 1008.4 1008.3 0.0
01/04:40pm 26.4 22.6 19.0 63 4.8 N 37 56 20 30 1008.3 1008.2 0.0
01/04:30pm 26.6 22.3 18.7 62 5.0 NNE 39 50 21 27 1008.2 1008.1 0.0
01/04:00pm 27.2 23.4 19.0 61 5.3 N 37 50 20 27 1008.5 1008.4 0.0
01/03:30pm 27.3 23.7 18.6 59 5.6 N 35 46 19 25 1008.6 1008.5 0.0
01/03:00pm 27.8 24.1 19.1 59 5.6 NNE 37 48 20 26 1009.1 1009.0 0.0
01/02:30pm 28.3 24.9 19.0 57 6.0 NNE 35 50 19 27 1009.5 1009.4 0.0
01/02:00pm 28.9 25.7 18.7 54 6.6 N 33 48 18 26 1009.9 1009.8 0.0
01/01:30pm 28.7 24.8 17.9 52 6.9 NNE 35 48 19 26 1010.4 1010.3 0.0
01/01:00pm 28.9 25.9 18.7 54 6.6 NNE 32 41 17 22 1011.4 1011.3 0.0
01/12:30pm 29.8 27.4 19.2 53 6.9 NNE 30 39 16 21 1011.6 1011.5 0.0
01/12:00pm 30.7 27.8 18.8 49 7.7 NNE 32 43 17 23 1011.9 1011.8 0.0
01/11:30am 29.5 26.7 16.3 45 8.2 N 26 32 14 17 1012.5 1012.4 0.0
01/11:00am 28.9 27.4 16.8 48 7.6 N 20 28 11 15 1013.2 1013.1 0.0
01/10:30am 27.6 26.0 16.6 51 6.8 N 20 28 11 15 1014.4 1014.3 0.0
01/10:00am 27.3 26.2 16.3 51 6.8 NW 17 28 9 15 1015.1 1015.0 0.0
01/09:30am 27.9 27.1 18.0 55 6.3 WNW 19 26 10 14 1015.8 1015.7 0.0
01/09:00am 25.6 26.6 17.8 62 4.9 WSW 9 15 5 8 1016.5 1016.4 0.0
01/08:30am 24.7 25.7 17.7 65 4.4 NW 9 15 5 8 1016.8 1016.7 0.0
01/08:00am 24.8 24.6 18.5 68 4.0 N 17 22 9 12 1015.4 1015.3 0.0
01/07:30am 23.6 23.4 18.5 73 3.2 N 17 20 9 11 1015.4 1015.3 0.0
01/07:00am 23.3 22.3 18.0 72 3.3 N 20 26 11 14 1014.8 1014.7 0.0
01/06:30am 22.8 23.5 18.8 78 2.5 N 13 20 7 11 1015.1 1015.0 0.0
01/06:00am 21.7 22.5 19.1 85 1.6 N 13 15 7 8 1015.3 1015.2 0.0
01/05:30am 20.4 21.8 18.7 90 1.1 N 9 13 5 7 1015.2 1015.1 0.0
01/05:00am 19.7 20.0 18.0 90 1.0 N 13 17 7 9 1014.5 1014.4 0.0
01/04:30am 20.5 21.4 18.4 88 1.3 N 11 13 6 7 1014.4 1014.3 0.0
01/04:00am 20.5 21.6 18.1 86 1.5 N 9 15 5 8 1014.1 1014.0 0.0
01/03:30am 21.2 22.1 18.4 84 1.7 N 11 15 6 8 1014.1 1014.0 0.0
01/03:00am 21.6 22.4 19.0 85 1.6 N 13 17 7 9 1013.8 1013.7 0.0
01/02:30am 21.1 21.9 19.0 88 1.3 NNE 13 15 7 8 1014.0 1013.9 0.0
01/02:00am 21.5 23.1 19.1 86 1.5 N 9 11 5 6 1014.3 1014.2 0.0
01/01:30am 22.1 23.0 19.3 84 1.8 NNW 13 17 7 9 1014.2 1014.1 0.0
01/01:00am 22.0 23.0 19.4 85 1.7 NW 13 19 7 10 1014.4 1014.3 0.0
01/12:30am 22.7 22.6 19.5 82 2.0 N 19 24 10 13 1014.4 1014.3 0.0
01/12:00am 23.1 23.0 19.5 80 2.3 N 19 26 10 14 1014.6 1014.5 0.0
 
Date/Time
EST
Tmp

°C
App
Tmp
°C
Dew
Point
°C
Rel
Hum
%
Delta-T

°C
Wind Press
QNH
hPa
Press
MSL
hPa
Rain
since
9 am
mm
Dir
 
Spd
km/h
Gust
km/h
Spd
kts
Gust
kts
31/11:30pm 23.1 23.4 19.5 80 2.3 N 17 26 9 14 1015.1 1015.0 0.0
31/11:00pm 23.1 23.6 19.3 79 2.4 N 15 22 8 12 1015.4 1015.3 0.0
31/10:30pm 23.1 22.7 19.3 79 2.4 N 20 28 11 15 1015.6 1015.5 0.0
31/10:00pm 23.0 22.2 19.2 79 2.4 N 22 35 12 19 1015.5 1015.4 0.0
31/09:30pm 23.0 21.6 18.7 77 2.7 N 24 35 13 19 1015.4 1015.3 0.0
31/09:00pm 23.4 21.1 18.5 74 3.1 N 28 37 15 20 1015.4 1015.3 0.0
31/08:30pm 23.7 21.0 18.4 72 3.3 N 30 39 16 21 1015.0 1014.9 0.0
31/08:00pm 23.7 22.5 18.4 72 3.3 N 22 30 12 16 1014.8 1014.7 0.0
31/07:30pm 23.7 21.7 18.4 72 3.3 N 26 41 14 22 1014.3 1014.2 0.0
31/07:00pm 23.9 21.8 19.0 74 3.1 NNE 28 41 15 22 1014.0 1013.9 0.0
31/06:30pm 24.0 21.5 18.9 73 3.2 N 30 41 16 22 1013.9 1013.8 0.0
31/06:00pm 24.2 21.2 18.6 71 3.5 NNE 32 43 17 23 1013.4 1013.3 0.0
31/05:30pm 24.9 20.8 18.3 66 4.2 NNE 37 46 20 25 1013.0 1012.9 0.0
31/05:00pm 26.0 22.2 18.9 65 4.5 N 37 48 20 26 1012.8 1012.7 0.0
31/04:30pm 26.2 22.6 18.6 63 4.8 NNE 35 46 19 25 1012.7 1012.6 0.0
31/04:00pm 26.9 23.3 18.5 60 5.4 N 35 46 19 25 1012.6 1012.5 0.0
31/03:30pm 27.8 24.4 18.2 56 6.1 N 33 43 18 23 1012.6 1012.5 0.0
31/03:00pm 28.6 24.9 17.5 51 7.0 NNE 33 46 18 25 1012.7 1012.6 0.0
31/02:30pm 29.8 26.9 17.9 48 7.6 N 30 39 16 21 1012.8 1012.7 0.0
31/02:00pm 29.6 26.6 17.8 49 7.5 N 30 37 16 20 1013.0 1012.9 0.0
31/01:30pm 30.5 28.8 18.9 50 7.5 NNE 26 37 14 20 1013.4 1013.3 0.0
31/01:00pm 29.8 28.6 18.3 50 7.4 N 22 30 12 16 1013.8 1013.7 0.0
31/12:30pm 30.2 29.1 18.6 49 7.5 NNE 22 33 12 18 1014.2 1014.1 0.0
31/12:00pm 29.9 29.5 19.3 53 6.9 NNE 20 35 11 19 1014.6 1014.5 0.0
31/11:30am 29.7 30.9 19.1 53 6.9 N 11 22 6 12 1015.0 1014.9 0.0
31/11:00am 29.0 30.4 17.8 50 7.1 NW 7 20 4 11 1015.4 1015.3 0.0
31/10:30am 27.8 28.0 17.6 53 6.4 N 13 24 7 13 1016.0 1015.9 0.0
31/10:00am 27.4 28.7 18.4 58 5.7 W 9 17 5 9 1016.4 1016.3 0.0
31/09:30am 26.3 27.0 17.9 60 5.3 NW 11 17 6 9 1016.8 1016.7 0.0
31/09:00am 26.3 27.5 18.2 61 5.1 SW 9 19 5 10 1016.9 1016.8 0.0
31/08:30am 25.1 25.5 18.1 65 4.4 WSW 13 17 7 9 1017.2 1017.1 0.0
31/08:00am 24.6 24.9 17.8 66 4.3 W 13 17 7 9 1017.2 1017.1 0.0
31/07:30am 23.8 25.1 18.4 72 3.4 W 9 13 5 7 1017.1 1017.0 0.0
31/07:00am 23.0 25.5 19.0 78 2.5 SSW 4 6 2 3 1017.0 1016.9 0.0
31/06:30am 22.5 24.5 19.1 81 2.2 W 7 9 4 5 1016.9 1016.8 0.0
31/06:00am 21.9 25.1 18.9 83 1.9 CALM 0 0 0 0 1016.6 1016.5 0.0
31/05:30am 21.4 23.2 18.8 85 1.6 S 7 9 4 5 1016.3 1016.2 0.0
31/05:00am 21.3 23.1 18.7 85 1.6 S 7 9 4 5 1015.8 1015.7 0.0
31/04:30am 21.0 22.4 18.6 86 1.5 S 9 13 5 7 1015.5 1015.4 0.0
31/04:00am 21.1 22.5 18.7 86 1.5 S 9 13 5 7 1015.3 1015.2 0.0
31/03:30am 21.1 22.9 18.7 86 1.5 SSW 7 9 4 5 1015.1 1015.0 0.0
31/03:00am 21.3 23.7 18.9 86 1.5 S 4 9 2 5 1014.7 1014.6 0.0
31/02:30am 21.5 23.6 18.9 85 1.6 SSE 6 7 3 4 1014.7 1014.6 0.0
31/02:00am 21.3 23.1 18.7 85 1.6 S 7 9 4 5 1015.1 1015.0 0.0
31/01:30am 21.6 24.3 18.6 83 1.9 ENE 2 6 1 3 1015.1 1015.0 0.0
31/01:00am 21.8 23.7 19.0 84 1.8 NE 7 9 4 5 1015.2 1015.1 0.0
31/12:30am 20.6 21.9 18.4 87 1.4 NNE 9 9 5 5 1015.5 1015.4 0.0
31/12:00am 21.2 23.6 18.8 86 1.5 N 4 7 2 4 1015.7 1015.6 0.0
 
Date/Time
EST
Tmp

°C
App
Tmp
°C
Dew
Point
°C
Rel
Hum
%
Delta-T

°C
Wind Press
QNH
hPa
Press
MSL
hPa
Rain
since
9 am
mm
Dir
 
Spd
km/h
Gust
km/h
Spd
kts
Gust
kts
30/11:30pm 20.8 22.2 17.8 83 1.9 N 7 9 4 5 1016.0 1015.9 0.0
30/11:00pm 22.1 23.1 18.7 81 2.1 N 11 17 6 9 1016.4 1016.3 0.0
30/10:30pm 23.1 22.7 18.8 77 2.7 NNW 19 22 10 12 1016.6 1016.5 0.0
30/10:00pm 22.6 23.9 19.2 81 2.2 NNE 11 15 6 8 1016.4 1016.3 0.0
30/09:30pm 22.2 22.6 19.0 82 2.0 NNE 15 19 8 10 1016.1 1016.0 0.0
30/09:00pm 22.1 22.0 18.7 81 2.1 NNE 17 24 9 13 1016.1 1016.0 0.0
30/08:30pm 22.1 21.8 18.3 79 2.4 NNE 17 24 9 13 1015.9 1015.8 0.0
30/08:00pm 22.8 22.4 18.8 78 2.5 NNE 19 24 10 13 1015.6 1015.5 0.0
30/07:30pm 22.7 22.0 18.7 78 2.5 NNE 20 26 11 14 1015.3 1015.2 0.0
30/07:00pm 22.6 21.5 18.6 78 2.5 NE 22 28 12 15 1014.7 1014.6 0.0
30/06:30pm 22.9 21.5 18.7 77 2.7 NNE 24 32 13 17 1014.5 1014.4 0.0
30/06:00pm 23.4 21.7 18.9 76 2.9 NE 26 33 14 18 1014.1 1014.0 0.0
30/05:30pm 24.1 22.3 18.7 72 3.4 NE 26 35 14 19 1013.8 1013.7 0.0
30/05:00pm 25.2 23.2 18.2 65 4.4 NNE 26 32 14 17 1013.6 1013.5 0.0
30/04:30pm 26.5 24.7 17.8 58 5.5 NE 24 32 13 17 1013.4 1013.3 0.0
30/04:00pm 26.6 23.7 17.1 56 5.9 NE 28 37 15 20 1013.0 1012.9 0.0
30/03:30pm 27.6 24.9 17.5 54 6.4 NE 28 33 15 18 1013.0 1012.9 0.0
30/03:00pm 28.2 25.9 17.7 53 6.6 NE 26 35 14 19 1013.1 1013.0 0.0
30/02:30pm 28.2 26.6 16.5 49 7.3 NE 20 30 11 16 1013.3 1013.2 0.0
30/02:00pm 28.9 26.4 16.1 46 7.9 NE 24 32 13 17 1013.4 1013.3 0.0
30/01:30pm 28.2 25.3 15.1 44 8.0 NNE 24 33 13 18 1013.8 1013.7 0.0
30/01:00pm 29.1 26.6 17.0 48 7.6 N 26 33 14 18 1014.2 1014.1 0.0
30/12:30pm 28.8 27.0 16.0 45 7.9 NNE 20 30 11 16 1014.6 1014.5 0.0
30/12:00pm 29.4 27.7 16.2 44 8.2 NNE 20 30 11 16 1015.1 1015.0 0.0
30/11:30am 29.1 28.8 14.5 41 8.8 N 9 19 5 10 1015.5 1015.4 0.0
30/11:00am 28.3 27.3 14.5 43 8.3 N 13 17 7 9 1016.0 1015.9 0.0
30/10:30am 27.8 28.3 15.5 47 7.5 ENE 7 17 4 9 1016.6 1016.5 0.0
30/10:00am 27.3 27.2 16.0 50 6.9 E 11 19 6 10 1017.0 1016.9 0.0
30/09:30am 25.5 26.1 15.2 53 6.2 SE 6 13 3 7 1017.4 1017.3 0.0
30/09:00am 25.4 25.5 15.4 54 6.0 E 9 19 5 10 1017.7 1017.6 0.0
30/08:30am 25.1 24.4 15.4 55 5.9 ESE 13 20 7 11 1018.1 1018.0 0.0
30/08:00am 23.9 24.1 15.7 60 4.9 SE 9 15 5 8 1018.2 1018.1 0.0
30/07:30am 22.4 22.7 16.0 67 3.9 SSW 9 13 5 7 1018.5 1018.4 0.0
30/07:00am 20.7 20.6 15.9 74 2.9 S 11 15 6 8 1018.2 1018.1 0.0
30/06:30am 19.5 20.1 15.8 79 2.2 SSW 7 11 4 6 1017.9 1017.8 0.0
30/06:00am 18.0 18.3 15.1 83 1.7 SSW 7 9 4 5 1017.6 1017.5 0.0
30/05:30am 16.4 16.6 14.8 90 0.9 SSW 7 9 4 5 1017.2 1017.1 0.0
30/05:00am 16.3 16.4 14.5 89 1.0 S 7 9 4 5 1016.8 1016.7 0.0
30/04:30am 16.4 16.9 14.9 91 0.9 SSW 6 7 3 4 1016.5 1016.4 0.0
30/04:00am 16.3 16.7 14.8 91 0.9 SSW 6 7 3 4 1016.3 1016.2 0.0
30/03:30am 15.1 16.1 13.3 89 1.0 CALM 0 4 0 2 1016.3 1016.2 0.0
30/03:00am 17.6 17.7 15.6 88 1.2 S 9 11 5 6 1016.3 1016.2 0.0
30/02:30am 17.6 18.2 15.9 90 1.0 S 7 9 4 5 1016.3 1016.2 0.0
30/02:00am 17.6 18.4 15.8 89 1.1 S 6 7 3 4 1016.3 1016.2 0.0
30/01:30am 17.1 18.8 15.3 89 1.0 CALM 0 2 0 1 1016.5 1016.4 0.0
30/01:00am 18.1 18.8 15.5 85 1.5 S 6 7 3 4 1016.5 1016.4 0.0
30/12:30am 19.0 19.9 16.0 83 1.8 SSE 6 7 3 4 1016.7 1016.6 0.0
30/12:00am 20.1 21.2 16.5 80 2.2 SE 6 7 3 4 1017.1 1017.0 0.0
 
Date/Time
EST
Tmp

°C
App
Tmp
°C
Dew
Point
°C
Rel
Hum
%
Delta-T

°C
Wind Press
QNH
hPa
Press
MSL
hPa
Rain
since
9 am
mm
Dir
 
Spd
km/h
Gust
km/h
Spd
kts
Gust
kts
29/11:30pm 20.1 20.9 16.3 79 2.3 SE 7 9 4 5 1017.4 1017.3 0.0
29/11:00pm 20.3 21.0 16.1 77 2.5 ENE 7 9 4 5 1017.5 1017.4 0.0
29/10:30pm 20.9 21.4 16.5 76 2.7 E 9 13 5 7 1017.6 1017.5 0.0
29/10:00pm 21.0 21.4 16.4 75 2.8 E 9 13 5 7 1017.5 1017.4 0.0

Latest Capital City Observations: Canberra | Sydney | Melbourne | Brisbane | Adelaide | Perth | Hobart | Darwin

Other Formats:

Comma delimited format used in spreadsheet applications
http://www.bom.gov.au/fwo/IDQ60901/IDQ60901.94575.axf

JavaScript Object Notation format (JSON) in row-major order
http://www.bom.gov.au/fwo/IDQ60901/IDQ60901.94575.json